Etusivu
METAR-TAF:

METAR-TAF

Lentoasemat :

Rønne, Tanska

Leveyspiiri: 55-04N, Pituuspiiri: 014-45E, korkeus merenpinnasta: 16 m

Tämänhetkinen sää

Tämä raportti tehtiin 37 minuuttia sitten, kello 06.50 UTC
Tuuli 11 kn lännestä/lounaasta
Lämpötila 17°C
Kosteus 82%
Ilmanpaine 1012 hPa
Näkyvyys 10 km tai enemmän

METAR: EKRN 140650Z AUTO 24011KT 9999 BKN013/// 17/14 Q1012

Aika: 09:27 (07:27 UTC)

Sääennuste

Tämä raportti tehtiin 2 tuntia ja 25 minuuttia sitten, kello 05.02 UTC
Ennuste voimassa 14. päivästä klo 06 UTC - 14. päivään klo 15 UTC
Tuuli 15 kn lännestä/lounaasta
Näkyvyys 10 km tai enemmän
Hajanaisia pilviä 2000 ft:n korkeudessa
Ajoittain
14. päivästä klo 06 UTC - 14. päivään klo 15 UTC
Näkyvyys: 6000 m
Hajonneita pilviä 1200 ft:n korkeudessa
Hajanaisia pilviä 1500 ft:n korkeudessa, Cumulonimbus.
heikkoja vesikuuroja,

TAF: EKRN 140502Z 1406/1415 24015KT 9999 SCT020 TEMPO 1406/1415 6000 -SHRA BKN012 SCT015CB

Säähavainnot ja -ennusteet yli 4000 lentoasemalta (METAR- ja TAF-raportit).

Käytössä olevat sääasemat on merkitty karttaan keltaisilla ja punaisilla pisteillä.

Aseta hiiri pisteen päälle nähdäksesi sääaseman nimen.

Klikkaa sitten nähdäksesi säähavainnot ja -ennusteet.

Kartan vaihtaminen: klikkaa mustalla rastilla varustettuja vihreitä pisteitä, niin voit zoomata sisään; viivalla varustettua vihreää pistettä, niin voit zoomata ulos tai vihreitä nuolia, niin pääset viereisille kartoille.


METAR-TAF: